createdAt,value
2022-11-28T00:01:30.105Z,99983.41
2022-11-28T00:03:58.372Z,99979.38
2022-11-28T00:06:28.248Z,99974.44
2022-11-28T00:08:56.592Z,99970.63
2022-11-28T00:11:24.503Z,99973.66
2022-11-28T00:13:53.669Z,99980.72
2022-11-28T00:16:22.500Z,99970.72
2022-11-28T00:18:51.510Z,99971.97
2022-11-28T00:21:19.216Z,99976.56
2022-11-28T00:23:49.024Z,99973.97
2022-11-28T00:26:17.930Z,99970.72
2022-11-28T00:28:45.654Z,99964.41
2022-11-28T00:31:14.517Z,99960.25
2022-11-28T00:33:43.817Z,99961.25
2022-11-28T00:36:12.065Z,99956.69
2022-11-28T00:38:41.058Z,99954.28
2022-11-28T00:41:11.546Z,99960.56
2022-11-28T00:43:39.600Z,99952.84
2022-11-28T00:46:07.583Z,99949.38
2022-11-28T00:48:35.865Z,99950.41
2022-11-28T00:51:07.356Z,99953.66
2022-11-28T00:53:35.525Z,99954.59
2022-11-28T00:56:04.955Z,99939.91
2022-11-28T00:58:34.574Z,99950.72
2022-11-28T01:01:08.326Z,99953.75
2022-11-28T01:03:36.615Z,99958.69
2022-11-28T01:06:04.721Z,99955.53
2022-11-28T01:08:32.657Z,99957.78
2022-11-28T01:11:00.927Z,99944.66
2022-11-28T01:13:29.487Z,99936.38
2022-11-28T01:15:59.604Z,99941.19
2022-11-28T01:18:27.472Z,99956.19
2022-11-28T01:20:55.390Z,99947.25
2022-11-28T01:23:23.370Z,99950.16
2022-11-28T01:25:51.094Z,99945.94
2022-11-28T01:28:19.166Z,99946.84
2022-11-28T01:30:47.021Z,99941.72
2022-11-28T01:33:16.393Z,99938.53
2022-11-28T01:35:44.412Z,99943.38
2022-11-28T01:38:12.281Z,99930.84
2022-11-28T01:40:46.533Z,99931.72
2022-11-28T01:43:14.399Z,99931.97
2022-11-28T01:45:42.336Z,99909.34
2022-11-28T01:48:12.055Z,99897.72
2022-11-28T01:50:41.890Z,99908.06
2022-11-28T01:53:11.504Z,99915.19
2022-11-28T01:55:43.472Z,99911.59
2022-11-28T01:58:12.700Z,99916.84
2022-11-28T02:00:40.536Z,99896.38
2022-11-28T02:03:12.057Z,99902.13
2022-11-28T02:05:41.444Z,99892.28
2022-11-28T02:08:09.879Z,99904.00
2022-11-28T02:10:45.254Z,99906.38
2022-11-28T02:13:17.805Z,99899.28
2022-11-28T02:15:52.452Z,99899.47
2022-11-28T02:18:32.315Z,99891.63
2022-11-28T02:21:17.172Z,99883.63
2022-11-28T02:24:02.934Z,99870.09
2022-11-28T02:26:51.734Z,99876.19
2022-11-28T02:29:29.040Z,99878.03
2022-11-28T02:32:17.909Z,99885.13
2022-11-28T02:34:52.113Z,99881.00
2022-11-28T02:37:24.796Z,99886.97
2022-11-28T02:39:56.837Z,99876.22
2022-11-28T02:42:29.778Z,99869.50
2022-11-28T02:45:00.978Z,99866.34
2022-11-28T02:47:33.422Z,99858.94
2022-11-28T02:50:06.609Z,99865.75
2022-11-28T02:52:35.893Z,99869.84
2022-11-28T02:55:04.261Z,99870.50
2022-11-28T02:57:35.798Z,99876.88
2022-11-28T03:00:04.931Z,99867.78
2022-11-28T03:02:34.333Z,99873.16
2022-11-28T03:05:07.077Z,99860.19
2022-11-28T03:07:41.285Z,99866.44
2022-11-28T03:10:20.153Z,99862.78
2022-11-28T03:12:52.979Z,99861.97
2022-11-28T03:15:22.980Z,99854.09
2022-11-28T03:18:00.849Z,99861.53
2022-11-28T03:20:32.569Z,99859.16
2022-11-28T03:23:04.060Z,99852.94
2022-11-28T03:25:37.375Z,99851.03
2022-11-28T03:28:08.440Z,99847.72
2022-11-28T03:30:40.366Z,99839.38
2022-11-28T03:33:09.854Z,99845.97
2022-11-28T03:35:39.860Z,99840.56
2022-11-28T03:38:11.235Z,99836.91
2022-11-28T03:40:42.725Z,99835.91
2022-11-28T03:43:12.555Z,99825.53
2022-11-28T03:45:42.586Z,99823.56
2022-11-28T03:48:14.839Z,99814.75
2022-11-28T03:50:44.030Z,99816.56
2022-11-28T03:53:14.760Z,99811.88
2022-11-28T03:55:46.285Z,99821.38
2022-11-28T03:58:17.606Z,99818.66
2022-11-28T04:00:51.025Z,99812.50
2022-11-28T04:03:23.490Z,99797.06
2022-11-28T04:05:55.000Z,99794.34
2022-11-28T04:08:25.529Z,99789.78
2022-11-28T04:10:57.697Z,99800.84
2022-11-28T04:13:28.095Z,99801.97
2022-11-28T04:15:58.621Z,99795.38
2022-11-28T04:18:29.103Z,99793.56
2022-11-28T04:20:59.734Z,99800.38
2022-11-28T04:23:28.393Z,99798.19
2022-11-28T04:25:58.410Z,99796.72
2022-11-28T04:28:28.337Z,99792.38
2022-11-28T04:30:57.691Z,99789.00
2022-11-28T04:33:29.224Z,99792.63
2022-11-28T04:35:57.928Z,99795.78
2022-11-28T04:38:30.511Z,99794.66
2022-11-28T04:41:04.015Z,99790.53
2022-11-28T04:43:35.190Z,99795.31
2022-11-28T04:46:07.021Z,99799.38
2022-11-28T04:48:36.353Z,99798.81
2022-11-28T04:51:11.795Z,99798.50
2022-11-28T04:53:44.692Z,99797.41
2022-11-28T04:56:15.111Z,99793.28
2022-11-28T04:58:44.608Z,99793.59
2022-11-28T05:01:15.572Z,99784.13
2022-11-28T05:03:45.163Z,99790.03
2022-11-28T05:06:23.435Z,99787.59
2022-11-28T05:08:51.470Z,99790.19
2022-11-28T05:11:19.478Z,99786.06
2022-11-28T05:13:47.275Z,99782.50
2022-11-28T05:16:16.482Z,99777.34
2022-11-28T05:18:45.896Z,99768.00
2022-11-28T05:21:14.463Z,99775.25
2022-11-28T05:23:43.750Z,99778.63
2022-11-28T05:26:14.655Z,99783.47
2022-11-28T05:28:44.495Z,99774.34
2022-11-28T05:31:13.052Z,99775.16
2022-11-28T05:33:41.812Z,99779.19
2022-11-28T05:36:13.660Z,99783.38
2022-11-28T05:38:42.363Z,99775.97
2022-11-28T05:41:10.901Z,99780.66
2022-11-28T05:43:38.806Z,99780.63
2022-11-28T05:46:07.240Z,99786.50
2022-11-28T05:48:34.991Z,99780.72
2022-11-28T05:51:05.122Z,99773.31
2022-11-28T05:53:34.525Z,99778.97
2022-11-28T05:56:07.733Z,99765.88
2022-11-28T05:58:36.299Z,99762.16
2022-11-28T06:01:11.128Z,99764.63
2022-11-28T06:03:39.089Z,99767.47
2022-11-28T06:06:10.263Z,99760.47
2022-11-28T06:08:40.546Z,99750.06
2022-11-28T06:11:09.049Z,99756.56
2022-11-28T06:13:37.536Z,99762.28
2022-11-28T06:16:08.463Z,99771.88
2022-11-28T06:18:36.426Z,99773.91
2022-11-28T06:21:04.655Z,99767.97
2022-11-28T06:23:33.828Z,99765.75
2022-11-28T06:26:07.746Z,99771.41
2022-11-28T06:28:37.866Z,99771.06
2022-11-28T06:31:06.712Z,99763.19
2022-11-28T06:33:34.720Z,99762.94
2022-11-28T06:36:05.231Z,99776.22
2022-11-28T06:38:33.450Z,99776.16
2022-11-28T06:41:02.654Z,99784.38
2022-11-28T06:43:32.450Z,99769.44
2022-11-28T06:46:00.479Z,99777.66
2022-11-28T06:48:31.072Z,99778.97
2022-11-28T06:51:03.275Z,99773.19
2022-11-28T06:53:31.837Z,99786.09
2022-11-28T06:56:00.095Z,99781.09
2022-11-28T06:58:28.165Z,99784.81
2022-11-28T07:00:57.434Z,99788.78
2022-11-28T07:03:25.293Z,99778.22
2022-11-28T07:05:53.630Z,99778.38
2022-11-28T07:08:21.551Z,99779.03
2022-11-28T07:10:49.524Z,99782.00
2022-11-28T07:13:17.550Z,99784.28
2022-11-28T07:15:49.695Z,99794.56
2022-11-28T07:18:19.256Z,99800.97
2022-11-28T07:20:47.133Z,99803.03
2022-11-28T07:23:14.925Z,99811.03
2022-11-28T07:25:42.757Z,99797.06
2022-11-28T07:28:10.469Z,99800.63
2022-11-28T07:30:38.535Z,99796.81
2022-11-28T07:33:08.102Z,99801.72
2022-11-28T07:35:38.088Z,99800.63
2022-11-28T07:38:06.884Z,99805.03
2022-11-28T07:40:34.981Z,99807.72
2022-11-28T07:43:02.952Z,99805.44
2022-11-28T07:45:47.464Z,99806.72
2022-11-28T07:48:18.876Z,99803.81
2022-11-28T07:50:48.160Z,99803.72
2022-11-28T07:53:16.391Z,99806.81
2022-11-28T07:55:44.460Z,99801.03
2022-11-28T07:58:12.388Z,99799.19
2022-11-28T08:00:40.849Z,99793.28
2022-11-28T08:03:08.725Z,99797.16
2022-11-28T08:05:36.789Z,99793.16
2022-11-28T08:08:06.427Z,99792.44
2022-11-28T08:10:37.015Z,99788.47
2022-11-28T08:13:05.201Z,99791.03
2022-11-28T08:15:33.007Z,99791.44
2022-11-28T08:18:01.033Z,99794.75
2022-11-28T08:20:29.405Z,99794.66
2022-11-28T08:22:57.658Z,99786.44
2022-11-28T08:25:27.519Z,99798.09
2022-11-28T08:27:55.377Z,99797.00
2022-11-28T08:30:23.308Z,99801.31
2022-11-28T08:32:51.463Z,99796.88
2022-11-28T08:35:19.583Z,99795.22
2022-11-28T08:37:47.712Z,99800.94
2022-11-28T08:40:16.036Z,99785.41
2022-11-28T08:42:45.480Z,99793.41
2022-11-28T08:45:13.716Z,99797.94
2022-11-28T08:47:41.629Z,99801.81
2022-11-28T08:50:10.364Z,99791.91
2022-11-28T08:52:38.140Z,99788.00
2022-11-28T08:55:06.517Z,99799.03
2022-11-28T08:57:35.025Z,99798.22
2022-11-28T09:00:06.400Z,99797.47
2022-11-28T09:02:34.613Z,99788.88
2022-11-28T09:05:02.500Z,99793.41
2022-11-28T09:07:30.914Z,99795.59
2022-11-28T09:09:59.493Z,99801.22
2022-11-28T09:12:28.013Z,99801.56
2022-11-28T09:14:55.991Z,99796.84
2022-11-28T09:17:25.267Z,99808.59
2022-11-28T09:19:55.465Z,99802.84
2022-11-28T09:22:23.424Z,99802.66
2022-11-28T09:24:51.486Z,99809.09
2022-11-28T09:27:19.459Z,99805.72
2022-11-28T09:29:49.696Z,99805.25
2022-11-28T09:32:17.489Z,99805.63
2022-11-28T09:34:46.758Z,99805.03
2022-11-28T09:37:14.606Z,99805.38
2022-11-28T09:40:04.882Z,99807.09
2022-11-28T09:42:33.467Z,99800.91
2022-11-28T09:45:03.577Z,99801.25
2022-11-28T09:47:33.347Z,99802.41
2022-11-28T09:50:04.133Z,99798.16
2022-11-28T09:52:35.357Z,99792.53
2022-11-28T09:55:06.347Z,99790.78
2022-11-28T09:57:36.837Z,99786.63
2022-11-28T10:00:05.289Z,99791.16
2022-11-28T10:02:44.942Z,99783.34
2022-11-28T10:05:17.275Z,99789.13
2022-11-28T10:07:54.930Z,99785.91
2022-11-28T10:10:27.696Z,99791.13
2022-11-28T10:13:02.661Z,99789.84
2022-11-28T10:15:39.797Z,99791.59
2022-11-28T10:18:16.171Z,99790.00
2022-11-28T10:20:46.858Z,99791.47
2022-11-28T10:23:17.701Z,99790.81
2022-11-28T10:25:50.586Z,99792.53
2022-11-28T10:28:20.964Z,99787.84
2022-11-28T10:30:53.341Z,99783.47
2022-11-28T10:33:25.616Z,99788.41
2022-11-28T10:35:56.567Z,99787.34
2022-11-28T10:38:27.480Z,99779.16
2022-11-28T10:40:59.357Z,99783.53
2022-11-28T10:43:39.465Z,99767.19
2022-11-28T10:46:20.494Z,99770.25
2022-11-28T10:48:50.235Z,99770.00
2022-11-28T10:51:30.941Z,99770.50
2022-11-28T10:54:04.117Z,99773.97
2022-11-28T10:56:37.839Z,99764.97
2022-11-28T10:59:14.346Z,99765.66
2022-11-28T11:01:45.916Z,99762.88
2022-11-28T11:04:19.510Z,99759.63
2022-11-28T11:07:08.277Z,99760.84
2022-11-28T11:09:39.013Z,99760.63
2022-11-28T11:12:08.872Z,99763.19
2022-11-28T11:14:39.914Z,99756.34
2022-11-28T11:17:08.677Z,99753.16
2022-11-28T11:19:37.747Z,99749.47
2022-11-28T11:22:15.860Z,99743.75
2022-11-28T11:24:44.079Z,99748.41
2022-11-28T11:27:19.278Z,99746.88
2022-11-28T11:29:51.237Z,99748.06
2022-11-28T11:32:22.496Z,99742.38
2022-11-28T11:34:51.189Z,99746.03
2022-11-28T11:37:21.995Z,99747.81
2022-11-28T11:39:51.384Z,99751.81
2022-11-28T11:42:23.881Z,99751.78
2022-11-28T11:44:52.044Z,99743.91
2022-11-28T11:47:20.500Z,99742.53
2022-11-28T11:49:49.265Z,99744.88
2022-11-28T11:52:22.378Z,99742.53
2022-11-28T11:55:01.305Z,99735.41
2022-11-28T11:57:34.128Z,99737.66
2022-11-28T12:00:04.761Z,99734.50
2022-11-28T12:02:42.664Z,99738.16
2022-11-28T12:05:12.799Z,99747.31
2022-11-28T12:07:43.203Z,99746.63
2022-11-28T12:10:13.834Z,99735.56
2022-11-28T12:12:42.295Z,99743.03
2022-11-28T12:15:16.595Z,99735.97
2022-11-28T12:17:53.389Z,99734.09
2022-11-28T12:20:31.242Z,99724.28
2022-11-28T12:23:05.802Z,99727.13
2022-11-28T12:25:40.848Z,99719.56
2022-11-28T12:28:15.866Z,99720.06
2022-11-28T12:31:01.600Z,99723.63
2022-11-28T12:33:39.204Z,99728.13
2022-11-28T12:36:12.594Z,99726.63
2022-11-28T12:38:56.962Z,99726.97
2022-11-28T12:41:32.826Z,99724.50
2022-11-28T12:44:07.551Z,99720.00
2022-11-28T12:46:39.706Z,99723.78
2022-11-28T12:49:15.291Z,99725.63
2022-11-28T12:51:48.478Z,99712.25
2022-11-28T12:54:24.904Z,99726.22
2022-11-28T12:56:58.406Z,99718.22
2022-11-28T12:59:30.940Z,99719.94
2022-11-28T13:02:09.483Z,99714.63
2022-11-28T13:04:55.043Z,99717.66
2022-11-28T13:07:29.886Z,99712.63
2022-11-28T13:10:02.721Z,99713.75
2022-11-28T13:12:41.292Z,99711.06
2022-11-28T13:15:14.842Z,99709.47
2022-11-28T13:17:46.366Z,99705.75
2022-11-28T13:20:19.492Z,99705.03
2022-11-28T13:22:58.504Z,99712.81
2022-11-28T13:25:29.824Z,99708.78
2022-11-28T13:28:19.251Z,99708.47
2022-11-28T13:30:49.986Z,99705.88
2022-11-28T13:33:29.832Z,99706.03
2022-11-28T13:35:59.322Z,99698.28
2022-11-28T13:38:35.811Z,99699.72
2022-11-28T13:41:18.092Z,99695.06
2022-11-28T13:44:02.119Z,99694.41
2022-11-28T13:46:30.159Z,99702.81
2022-11-28T13:49:20.513Z,99710.94
2022-11-28T13:51:49.580Z,99705.56
2022-11-28T13:54:54.942Z,99705.06
2022-11-28T13:57:25.097Z,99703.88
2022-11-28T14:00:01.405Z,99701.22
2022-11-28T14:02:35.440Z,99700.03
2022-11-28T14:05:05.628Z,99701.25
2022-11-28T14:07:34.706Z,99698.88
2022-11-28T14:10:13.342Z,99696.50
2022-11-28T14:12:46.650Z,99699.59
2022-11-28T14:15:23.323Z,99694.00
2022-11-28T14:17:56.223Z,99701.88
2022-11-28T14:20:29.867Z,99705.00
2022-11-28T14:23:04.643Z,99707.31
2022-11-28T14:25:34.653Z,99705.44
2022-11-28T14:28:05.019Z,99701.81
2022-11-28T14:30:36.327Z,99699.47
2022-11-28T14:33:06.059Z,99698.25
2022-11-28T14:35:53.263Z,99704.47
2022-11-28T14:38:41.732Z,99706.97
2022-11-28T14:41:11.923Z,99703.50
2022-11-28T14:43:40.641Z,99705.88
2022-11-28T14:46:25.395Z,99700.69
2022-11-28T14:49:14.360Z,99703.59
2022-11-28T14:52:22.969Z,99703.28
2022-11-28T14:54:51.315Z,99709.16
2022-11-28T14:57:20.444Z,99710.72
2022-11-28T14:59:50.267Z,99704.84
2022-11-28T15:02:35.372Z,99703.56
2022-11-28T15:05:09.634Z,99718.63
2022-11-28T15:07:45.635Z,99712.75
2022-11-28T15:10:21.580Z,99707.34
2022-11-28T15:12:56.291Z,99712.63
2022-11-28T15:15:24.313Z,99705.63
2022-11-28T15:17:54.555Z,99713.03
2022-11-28T15:20:27.952Z,99713.13
2022-11-28T15:22:56.031Z,99707.81
2022-11-28T15:25:29.262Z,99701.81
2022-11-28T15:27:59.316Z,99713.03
2022-11-28T15:30:27.451Z,99716.91
2022-11-28T15:32:58.240Z,99722.19
2022-11-28T15:35:27.973Z,99720.19
2022-11-28T15:37:58.568Z,99720.50
2022-11-28T15:40:30.184Z,99721.78
2022-11-28T15:42:58.047Z,99725.94
2022-11-28T15:45:27.375Z,99729.91
2022-11-28T15:47:55.760Z,99731.31
2022-11-28T15:50:25.274Z,99724.13
2022-11-28T15:52:54.870Z,99724.25
2022-11-28T15:55:23.259Z,99727.69
2022-11-28T15:57:52.468Z,99734.22
2022-11-28T16:00:24.337Z,99732.03
2022-11-28T16:02:53.349Z,99739.41
2022-11-28T16:05:22.246Z,99742.84
2022-11-28T16:07:51.105Z,99729.53
2022-11-28T16:10:22.998Z,99737.31
2022-11-28T16:12:54.165Z,99735.88
2022-11-28T16:15:24.257Z,99731.50
2022-11-28T16:17:54.823Z,99744.31
2022-11-28T16:20:24.687Z,99742.56
2022-11-28T16:22:59.638Z,99738.00
2022-11-28T16:25:28.706Z,99746.28
2022-11-28T16:27:58.200Z,99740.00
2022-11-28T16:30:27.513Z,99741.97
2022-11-28T16:32:56.550Z,99742.09
2022-11-28T16:35:28.846Z,99747.81
2022-11-28T16:38:05.219Z,99743.91
2022-11-28T16:40:33.682Z,99745.25
2022-11-28T16:43:05.162Z,99748.47
2022-11-28T16:45:34.318Z,99747.00
2022-11-28T16:48:06.862Z,99743.06
2022-11-28T16:50:35.003Z,99744.81
2022-11-28T16:53:03.753Z,99748.97
2022-11-28T16:55:47.161Z,99751.34
2022-11-28T16:58:18.186Z,99750.31
2022-11-28T17:00:50.438Z,99748.03
2022-11-28T17:03:23.533Z,99749.16
2022-11-28T17:05:51.858Z,99747.81
2022-11-28T17:08:20.277Z,99745.94
2022-11-28T17:10:48.435Z,99755.47
2022-11-28T17:13:18.464Z,99740.66
2022-11-28T17:25:24.684Z,99754.53
2022-11-28T18:06:32.637Z,99759.94
2022-11-28T18:09:02.528Z,99764.41
2022-11-28T18:11:35.878Z,99763.78
2022-11-28T18:14:04.649Z,99756.94
2022-11-28T18:16:32.798Z,99763.59
2022-11-28T18:19:00.811Z,99767.06
2022-11-28T18:21:28.866Z,99763.59
2022-11-28T18:23:58.183Z,99758.44
2022-11-28T18:26:28.244Z,99759.50
2022-11-28T18:28:56.265Z,99762.72
2022-11-28T18:31:25.280Z,99765.38
2022-11-28T18:33:57.395Z,99758.16
2022-11-28T18:36:29.328Z,99765.50
2022-11-28T18:38:59.811Z,99769.31
2022-11-28T18:41:28.657Z,99771.16
2022-11-28T18:43:57.169Z,99771.75
2022-11-28T18:46:26.709Z,99773.25
2022-11-28T18:48:54.728Z,99774.59
2022-11-28T18:51:25.027Z,99775.50
2022-11-28T18:53:53.411Z,99775.34
2022-11-28T18:56:23.333Z,99783.88
2022-11-28T18:58:52.426Z,99773.38
2022-11-28T19:16:15.021Z,99769.38
2022-11-28T21:20:14.544Z,99819.59
2022-11-28T21:22:43.809Z,99815.28
2022-11-28T21:33:38.421Z,99830.34
2022-11-28T21:36:08.311Z,99820.94
2022-11-28T21:38:38.608Z,99825.66
2022-11-28T21:41:06.537Z,99816.84
2022-11-28T21:43:34.082Z,99820.75
2022-11-28T21:46:03.040Z,99823.75
2022-11-28T21:48:31.157Z,99823.13
2022-11-28T21:51:00.672Z,99817.94
2022-11-28T21:53:29.701Z,99822.84
2022-11-28T21:56:00.395Z,99812.88
2022-11-28T21:58:28.979Z,99821.00
2022-11-28T22:00:57.802Z,99811.28
2022-11-28T22:03:25.687Z,99807.16
2022-11-28T22:05:54.223Z,99814.66
2022-11-28T22:08:22.243Z,99813.63
2022-11-28T22:10:50.538Z,99811.94
2022-11-28T22:13:20.400Z,99813.63
2022-11-28T22:15:48.830Z,99813.53
2022-11-28T22:18:16.763Z,99819.97
2022-11-28T22:20:48.913Z,99812.34
2022-11-28T22:23:20.356Z,99813.53
2022-11-28T22:25:52.648Z,99818.22
2022-11-28T22:28:23.206Z,99818.03
2022-11-28T22:30:51.564Z,99814.00
2022-11-28T22:33:21.078Z,99822.59
2022-11-28T22:35:51.270Z,99821.00
2022-11-28T22:38:19.278Z,99830.53
2022-11-28T22:40:48.107Z,99836.63
2022-11-28T22:43:16.099Z,99831.59
2022-11-28T22:45:45.619Z,99830.88
2022-11-28T22:48:14.106Z,99827.84
2022-11-28T22:50:42.408Z,99836.97
2022-11-28T22:53:10.401Z,99834.38
2022-11-28T22:55:38.819Z,99835.16
2022-11-28T22:58:07.288Z,99828.34
2022-11-28T23:00:37.076Z,99834.38
2022-11-28T23:03:07.566Z,99835.16
2022-11-28T23:05:35.643Z,99833.09
2022-11-28T23:08:03.900Z,99831.94
2022-11-28T23:10:32.173Z,99837.97
2022-11-28T23:13:00.217Z,99843.88
2022-11-28T23:15:28.797Z,99839.34
2022-11-28T23:17:56.825Z,99840.53
2022-11-28T23:20:26.334Z,99843.38
2022-11-28T23:22:54.468Z,99845.84
2022-11-28T23:25:22.689Z,99841.13
2022-11-28T23:27:51.002Z,99844.47
2022-11-28T23:30:19.027Z,99845.28
2022-11-28T23:32:47.092Z,99843.50
2022-11-28T23:35:15.361Z,99842.25
2022-11-28T23:37:44.767Z,99842.88
2022-11-28T23:40:13.102Z,99850.31
2022-11-28T23:42:41.877Z,99843.75
2022-11-28T23:45:10.692Z,99841.38
2022-11-28T23:47:38.645Z,99840.03
2022-11-28T23:50:07.286Z,99839.81
2022-11-28T23:52:35.531Z,99839.22
2022-11-28T23:55:05.162Z,99836.13
2022-11-28T23:57:33.111Z,99840.47
